sensor_id;sensor_type;location;lat;lon;timestamp;pressure;altitude;pressure_sealevel;temperature;humidity
36726;BME280;44936;52.086;5.150;2023-12-04T00:00:32;102056.13;;;2.21;100.00
36726;BME280;44936;52.086;5.150;2023-12-04T00:02:57;102069.69;;;2.17;100.00
36726;BME280;44936;52.086;5.150;2023-12-04T00:05:23;102064.84;;;2.23;100.00
36726;BME280;44936;52.086;5.150;2023-12-04T00:07:48;102040.69;;;2.08;100.00
36726;BME280;44936;52.086;5.150;2023-12-04T00:10:13;102059.09;;;2.29;100.00
36726;BME280;44936;52.086;5.150;2023-12-04T00:12:39;102049.06;;;2.19;100.00
36726;BME280;44936;52.086;5.150;2023-12-04T00:15:05;102051.91;;;2.23;100.00
36726;BME280;44936;52.086;5.150;2023-12-04T00:17:30;102051.31;;;2.13;100.00
36726;BME280;44936;52.086;5.150;2023-12-04T00:19:55;102043.34;;;2.24;100.00
36726;BME280;44936;52.086;5.150;2023-12-04T00:22:21;102013.38;;;2.13;100.00
36726;BME280;44936;52.086;5.150;2023-12-04T00:24:46;102038.25;;;2.26;100.00
36726;BME280;44936;52.086;5.150;2023-12-04T00:27:12;102042.16;;;2.34;100.00
36726;BME280;44936;52.086;5.150;2023-12-04T00:29:37;102040.59;;;2.38;100.00
36726;BME280;44936;52.086;5.150;2023-12-04T00:32:02;102032.59;;;2.33;100.00
36726;BME280;44936;52.086;5.150;2023-12-04T00:34:28;102033.91;;;2.41;100.00
36726;BME280;44936;52.086;5.150;2023-12-04T00:36:53;102024.84;;;2.33;100.00
36726;BME280;44936;52.086;5.150;2023-12-04T00:39:19;102026.78;;;2.37;100.00
36726;BME280;44936;52.086;5.150;2023-12-04T00:41:44;102021.34;;;2.33;100.00
36726;BME280;44936;52.086;5.150;2023-12-04T00:44:09;102016.84;;;2.45;100.00
36726;BME280;44936;52.086;5.150;2023-12-04T00:46:35;102030.38;;;2.39;100.00
36726;BME280;44936;52.086;5.150;2023-12-04T00:49:00;102032.81;;;2.52;100.00
36726;BME280;44936;52.086;5.150;2023-12-04T00:51:25;102029.59;;;2.57;100.00
36726;BME280;44936;52.086;5.150;2023-12-04T00:53:51;102027.63;;;2.52;100.00
36726;BME280;44936;52.086;5.150;2023-12-04T00:56:16;102026.25;;;2.59;100.00
36726;BME280;44936;52.086;5.150;2023-12-04T00:58:43;102008.84;;;2.40;100.00
36726;BME280;44936;52.086;5.150;2023-12-04T01:01:09;102004.94;;;2.32;100.00
36726;BME280;44936;52.086;5.150;2023-12-04T01:03:34;102001.53;;;2.33;100.00
36726;BME280;44936;52.086;5.150;2023-12-04T01:05:59;101994.63;;;2.17;100.00
36726;BME280;44936;52.086;5.150;2023-12-04T01:08:25;101999.03;;;2.35;100.00
36726;BME280;44936;52.086;5.150;2023-12-04T01:10:50;101945.66;;;2.06;100.00
36726;BME280;44936;52.086;5.150;2023-12-04T01:13:15;101945.09;;;2.11;100.00
36726;BME280;44936;52.086;5.150;2023-12-04T01:15:41;101972.22;;;2.18;100.00
36726;BME280;44936;52.086;5.150;2023-12-04T01:18:07;101979.50;;;2.25;100.00
36726;BME280;44936;52.086;5.150;2023-12-04T01:20:33;101977.81;;;2.25;100.00
36726;BME280;44936;52.086;5.150;2023-12-04T01:22:58;101953.56;;;2.23;100.00
36726;BME280;44936;52.086;5.150;2023-12-04T01:25:23;101978.34;;;2.20;100.00
36726;BME280;44936;52.086;5.150;2023-12-04T01:27:49;101915.47;;;1.90;100.00
36726;BME280;44936;52.086;5.150;2023-12-04T01:30:14;101938.44;;;2.00;100.00
36726;BME280;44936;52.086;5.150;2023-12-04T01:32:40;101960.75;;;2.13;100.00
36726;BME280;44936;52.086;5.150;2023-12-04T01:35:05;101965.91;;;2.29;100.00
36726;BME280;44936;52.086;5.150;2023-12-04T01:37:31;101947.00;;;2.14;100.00
36726;BME280;44936;52.086;5.150;2023-12-04T01:39:57;101957.97;;;2.10;100.00
36726;BME280;44936;52.086;5.150;2023-12-04T01:42:22;101970.03;;;2.25;100.00
36726;BME280;44936;52.086;5.150;2023-12-04T01:44:47;101974.41;;;2.26;100.00
36726;BME280;44936;52.086;5.150;2023-12-04T01:47:13;101972.09;;;2.31;100.00
36726;BME280;44936;52.086;5.150;2023-12-04T01:49:39;101932.34;;;2.14;100.00
36726;BME280;44936;52.086;5.150;2023-12-04T01:52:05;101957.84;;;2.23;100.00
36726;BME280;44936;52.086;5.150;2023-12-04T01:54:30;101958.00;;;2.26;100.00
36726;BME280;44936;52.086;5.150;2023-12-04T01:56:57;101951.06;;;2.41;100.00
36726;BME280;44936;52.086;5.150;2023-12-04T01:59:24;101945.97;;;2.43;100.00
36726;BME280;44936;52.086;5.150;2023-12-04T02:01:51;101954.19;;;2.36;100.00
36726;BME280;44936;52.086;5.150;2023-12-04T02:04:17;101902.19;;;2.15;100.00
36726;BME280;44936;52.086;5.150;2023-12-04T02:06:43;101879.91;;;2.02;100.00
36726;BME280;44936;52.086;5.150;2023-12-04T02:09:08;101901.53;;;2.19;100.00
36726;BME280;44936;52.086;5.150;2023-12-04T02:11:37;101933.81;;;2.42;100.00
36726;BME280;44936;52.086;5.150;2023-12-04T02:14:04;101901.03;;;2.26;100.00
36726;BME280;44936;52.086;5.150;2023-12-04T02:16:30;101904.44;;;2.25;100.00
36726;BME280;44936;52.086;5.150;2023-12-04T02:18:57;101875.16;;;2.10;100.00
36726;BME280;44936;52.086;5.150;2023-12-04T02:21:22;101920.63;;;2.37;100.00
36726;BME280;44936;52.086;5.150;2023-12-04T02:23:49;101899.28;;;2.25;100.00
36726;BME280;44936;52.086;5.150;2023-12-04T02:26:16;101917.78;;;2.16;100.00
36726;BME280;44936;52.086;5.150;2023-12-04T02:28:50;101890.75;;;2.11;100.00
36726;BME280;44936;52.086;5.150;2023-12-04T02:31:20;101906.69;;;2.19;100.00
36726;BME280;44936;52.086;5.150;2023-12-04T02:33:52;101864.31;;;2.01;100.00
36726;BME280;44936;52.086;5.150;2023-12-04T02:36:19;101904.03;;;2.34;100.00
36726;BME280;44936;52.086;5.150;2023-12-04T02:38:46;101861.41;;;2.11;100.00
36726;BME280;44936;52.086;5.150;2023-12-04T02:41:14;101879.84;;;2.17;100.00
36726;BME280;44936;52.086;5.150;2023-12-04T02:43:39;101881.97;;;2.24;100.00
36726;BME280;44936;52.086;5.150;2023-12-04T02:46:05;101865.88;;;2.13;100.00
36726;BME280;44936;52.086;5.150;2023-12-04T02:48:30;101887.16;;;2.40;100.00
36726;BME280;44936;52.086;5.150;2023-12-04T02:50:57;101876.53;;;2.36;100.00
36726;BME280;44936;52.086;5.150;2023-12-04T02:53:22;101868.69;;;2.34;100.00
36726;BME280;44936;52.086;5.150;2023-12-04T02:55:47;101859.94;;;2.16;100.00
36726;BME280;44936;52.086;5.150;2023-12-04T02:58:12;101841.00;;;2.01;100.00
36726;BME280;44936;52.086;5.150;2023-12-04T03:00:38;101833.81;;;2.11;100.00
36726;BME280;44936;52.086;5.150;2023-12-04T03:03:08;101826.78;;;2.09;100.00
36726;BME280;44936;52.086;5.150;2023-12-04T03:05:34;101852.34;;;2.19;100.00
36726;BME280;44936;52.086;5.150;2023-12-04T03:07:59;101832.94;;;2.11;100.00
36726;BME280;44936;52.086;5.150;2023-12-04T03:10:24;101847.16;;;2.19;100.00
36726;BME280;44936;52.086;5.150;2023-12-04T03:12:50;101832.22;;;2.13;100.00
36726;BME280;44936;52.086;5.150;2023-12-04T03:15:15;101805.28;;;1.93;100.00
36726;BME280;44936;52.086;5.150;2023-12-04T03:17:40;101796.06;;;1.98;100.00
36726;BME280;44936;52.086;5.150;2023-12-04T03:20:06;101817.50;;;2.12;100.00
36726;BME280;44936;52.086;5.150;2023-12-04T03:22:34;101823.06;;;2.20;100.00
36726;BME280;44936;52.086;5.150;2023-12-04T03:25:00;101797.38;;;2.07;100.00
36726;BME280;44936;52.086;5.150;2023-12-04T03:27:25;101803.56;;;2.10;100.00
36726;BME280;44936;52.086;5.150;2023-12-04T03:29:50;101818.00;;;2.21;100.00
36726;BME280;44936;52.086;5.150;2023-12-04T03:32:16;101826.31;;;2.16;100.00
36726;BME280;44936;52.086;5.150;2023-12-04T03:34:41;101807.16;;;2.12;100.00
36726;BME280;44936;52.086;5.150;2023-12-04T03:37:06;101789.34;;;2.02;100.00
36726;BME280;44936;52.086;5.150;2023-12-04T03:39:32;101799.47;;;1.97;100.00
36726;BME280;44936;52.086;5.150;2023-12-04T03:41:59;101809.06;;;2.00;100.00
36726;BME280;44936;52.086;5.150;2023-12-04T03:44:25;101773.84;;;1.86;100.00
36726;BME280;44936;52.086;5.150;2023-12-04T03:46:50;101765.69;;;1.94;100.00
36726;BME280;44936;52.086;5.150;2023-12-04T03:49:17;101771.16;;;2.01;100.00
36726;BME280;44936;52.086;5.150;2023-12-04T03:51:42;101792.34;;;1.93;100.00
36726;BME280;44936;52.086;5.150;2023-12-04T03:54:07;101797.22;;;2.04;100.00
36726;BME280;44936;52.086;5.150;2023-12-04T03:56:33;101727.22;;;1.68;100.00
36726;BME280;44936;52.086;5.150;2023-12-04T03:58:58;101790.34;;;2.04;100.00
36726;BME280;44936;52.086;5.150;2023-12-04T04:01:23;101749.75;;;1.87;100.00
36726;BME280;44936;52.086;5.150;2023-12-04T04:03:49;101775.69;;;2.05;100.00
36726;BME280;44936;52.086;5.150;2023-12-04T04:06:14;101756.91;;;1.92;100.00
36726;BME280;44936;52.086;5.150;2023-12-04T04:08:39;101723.47;;;1.63;100.00
36726;BME280;44936;52.086;5.150;2023-12-04T04:11:08;101753.13;;;2.02;100.00
36726;BME280;44936;52.086;5.150;2023-12-04T04:13:33;101736.22;;;1.92;100.00
36726;BME280;44936;52.086;5.150;2023-12-04T04:15:58;101767.59;;;1.98;100.00
36726;BME280;44936;52.086;5.150;2023-12-04T04:18:24;101726.69;;;1.91;100.00
36726;BME280;44936;52.086;5.150;2023-12-04T04:20:49;101765.16;;;2.18;100.00
36726;BME280;44936;52.086;5.150;2023-12-04T04:23:14;101766.06;;;2.02;100.00
36726;BME280;44936;52.086;5.150;2023-12-04T04:25:40;101757.25;;;1.98;100.00
36726;BME280;44936;52.086;5.150;2023-12-04T04:28:08;101754.59;;;1.97;100.00
36726;BME280;44936;52.086;5.150;2023-12-04T04:30:33;101707.94;;;1.95;100.00
36726;BME280;44936;52.086;5.150;2023-12-04T04:32:58;101722.72;;;1.98;100.00
36726;BME280;44936;52.086;5.150;2023-12-04T04:35:24;101684.34;;;1.73;100.00
36726;BME280;44936;52.086;5.150;2023-12-04T04:37:49;101699.78;;;1.88;100.00
36726;BME280;44936;52.086;5.150;2023-12-04T04:40:14;101736.63;;;2.00;100.00
36726;BME280;44936;52.086;5.150;2023-12-04T04:42:40;101737.69;;;2.04;100.00
36726;BME280;44936;52.086;5.150;2023-12-04T04:45:05;101725.53;;;2.03;100.00
36726;BME280;44936;52.086;5.150;2023-12-04T04:47:31;101731.03;;;2.09;100.00
36726;BME280;44936;52.086;5.150;2023-12-04T04:49:56;101722.00;;;2.01;100.00
36726;BME280;44936;52.086;5.150;2023-12-04T04:52:48;101738.16;;;2.13;100.00
36726;BME280;44936;52.086;5.150;2023-12-04T04:55:13;101685.16;;;1.88;100.00
36726;BME280;44936;52.086;5.150;2023-12-04T04:57:39;101733.13;;;2.16;100.00
36726;BME280;44936;52.086;5.150;2023-12-04T05:00:05;101730.69;;;2.19;100.00
36726;BME280;44936;52.086;5.150;2023-12-04T05:02:30;101721.00;;;2.15;100.00
36726;BME280;44936;52.086;5.150;2023-12-04T05:04:56;101691.53;;;1.95;100.00
36726;BME280;44936;52.086;5.150;2023-12-04T05:07:21;101709.44;;;2.08;100.00
36726;BME280;44936;52.086;5.150;2023-12-04T05:09:47;101707.44;;;2.03;100.00
36726;BME280;44936;52.086;5.150;2023-12-04T05:12:13;101671.00;;;1.82;100.00
36726;BME280;44936;52.086;5.150;2023-12-04T05:14:38;101668.16;;;1.93;100.00
36726;BME280;44936;52.086;5.150;2023-12-04T05:17:03;101687.47;;;2.00;100.00
36726;BME280;44936;52.086;5.150;2023-12-04T05:19:29;101682.22;;;1.98;100.00
36726;BME280;44936;52.086;5.150;2023-12-04T05:21:54;101700.19;;;1.95;100.00
36726;BME280;44936;52.086;5.150;2023-12-04T05:24:19;101675.41;;;2.01;100.00
36726;BME280;44936;52.086;5.150;2023-12-04T05:26:45;101648.13;;;1.89;100.00
36726;BME280;44936;52.086;5.150;2023-12-04T05:29:11;101696.34;;;2.21;100.00
36726;BME280;44936;52.086;5.150;2023-12-04T05:31:36;101685.81;;;2.18;100.00
36726;BME280;44936;52.086;5.150;2023-12-04T05:34:02;101681.34;;;1.98;100.00
36726;BME280;44936;52.086;5.150;2023-12-04T05:36:28;101678.66;;;2.13;100.00
36726;BME280;44936;52.086;5.150;2023-12-04T05:38:53;101648.59;;;1.98;100.00
36726;BME280;44936;52.086;5.150;2023-12-04T05:41:19;101679.09;;;2.22;100.00
36726;BME280;44936;52.086;5.150;2023-12-04T05:43:44;101678.84;;;2.17;100.00
36726;BME280;44936;52.086;5.150;2023-12-04T05:46:09;101636.31;;;1.94;100.00
36726;BME280;44936;52.086;5.150;2023-12-04T05:48:35;101616.41;;;1.93;100.00
36726;BME280;44936;52.086;5.150;2023-12-04T05:51:00;101673.22;;;2.08;100.00
36726;BME280;44936;52.086;5.150;2023-12-04T05:53:25;101638.25;;;1.82;100.00
36726;BME280;44936;52.086;5.150;2023-12-04T05:55:51;101673.22;;;2.08;100.00
36726;BME280;44936;52.086;5.150;2023-12-04T05:58:16;101657.63;;;2.07;100.00
36726;BME280;44936;52.086;5.150;2023-12-04T06:00:41;101633.50;;;1.90;100.00
36726;BME280;44936;52.086;5.150;2023-12-04T06:03:07;101609.19;;;1.86;100.00
36726;BME280;44936;52.086;5.150;2023-12-04T06:05:32;101627.63;;;1.94;100.00
36726;BME280;44936;52.086;5.150;2023-12-04T06:07:58;101630.69;;;2.03;100.00
36726;BME280;44936;52.086;5.150;2023-12-04T06:10:23;101622.78;;;2.00;100.00
36726;BME280;44936;52.086;5.150;2023-12-04T06:12:48;101613.75;;;1.92;100.00
36726;BME280;44936;52.086;5.150;2023-12-04T06:15:14;101643.22;;;2.30;100.00
36726;BME280;44936;52.086;5.150;2023-12-04T06:17:39;101649.81;;;2.23;100.00
36726;BME280;44936;52.086;5.150;2023-12-04T06:20:05;101612.22;;;1.95;100.00
36726;BME280;44936;52.086;5.150;2023-12-04T06:22:34;101614.50;;;1.89;100.00
36726;BME280;44936;52.086;5.150;2023-12-04T06:24:59;101640.19;;;2.20;100.00
36726;BME280;44936;52.086;5.150;2023-12-04T06:27:25;101597.72;;;1.99;100.00
36726;BME280;44936;52.086;5.150;2023-12-04T06:29:50;101621.50;;;2.26;100.00
36726;BME280;44936;52.086;5.150;2023-12-04T06:32:16;101619.22;;;2.32;100.00
36726;BME280;44936;52.086;5.150;2023-12-04T06:34:42;101618.94;;;2.10;100.00
36726;BME280;44936;52.086;5.150;2023-12-04T06:37:12;101591.44;;;2.12;100.00
36726;BME280;44936;52.086;5.150;2023-12-04T06:39:38;101607.44;;;2.21;100.00
36726;BME280;44936;52.086;5.150;2023-12-04T06:42:08;101624.59;;;2.37;100.00
36726;BME280;44936;52.086;5.150;2023-12-04T06:44:36;101578.06;;;2.03;100.00
36726;BME280;44936;52.086;5.150;2023-12-04T06:47:02;101590.28;;;2.23;100.00
36726;BME280;44936;52.086;5.150;2023-12-04T06:49:32;101613.78;;;2.27;100.00
36726;BME280;44936;52.086;5.150;2023-12-04T06:51:59;101583.16;;;2.19;100.00
36726;BME280;44936;52.086;5.150;2023-12-04T06:54:24;101576.47;;;2.05;100.00
36726;BME280;44936;52.086;5.150;2023-12-04T06:56:50;101565.13;;;2.03;100.00
36726;BME280;44936;52.086;5.150;2023-12-04T06:59:16;101578.75;;;2.16;100.00
36726;BME280;44936;52.086;5.150;2023-12-04T07:01:42;101577.19;;;2.20;100.00
36726;BME280;44936;52.086;5.150;2023-12-04T07:04:08;101567.94;;;2.07;100.00
36726;BME280;44936;52.086;5.150;2023-12-04T07:06:43;101539.56;;;2.09;100.00
36726;BME280;44936;52.086;5.150;2023-12-04T07:09:09;101578.00;;;2.19;100.00
36726;BME280;44936;52.086;5.150;2023-12-04T07:11:34;101558.53;;;2.27;100.00
36726;BME280;44936;52.086;5.150;2023-12-04T07:14:00;101555.53;;;2.18;100.00
36726;BME280;44936;52.086;5.150;2023-12-04T07:16:25;101538.09;;;2.14;100.00
36726;BME280;44936;52.086;5.150;2023-12-04T07:18:50;101582.53;;;2.41;100.00
36726;BME280;44936;52.086;5.150;2023-12-04T07:21:16;101535.25;;;2.09;100.00
36726;BME280;44936;52.086;5.150;2023-12-04T07:23:41;101579.63;;;2.17;100.00
36726;BME280;44936;52.086;5.150;2023-12-04T07:26:07;101576.47;;;2.22;100.00
36726;BME280;44936;52.086;5.150;2023-12-04T07:28:33;101574.44;;;2.35;100.00
36726;BME280;44936;52.086;5.150;2023-12-04T07:31:00;101566.47;;;2.30;100.00
36726;BME280;44936;52.086;5.150;2023-12-04T07:33:26;101570.53;;;2.43;100.00
36726;BME280;44936;52.086;5.150;2023-12-04T07:35:52;101560.50;;;2.31;100.00
36726;BME280;44936;52.086;5.150;2023-12-04T07:38:17;101563.06;;;2.31;100.00
36726;BME280;44936;52.086;5.150;2023-12-04T07:40:44;101537.47;;;2.02;100.00
36726;BME280;44936;52.086;5.150;2023-12-04T07:43:10;101563.34;;;2.19;100.00
36726;BME280;44936;52.086;5.150;2023-12-04T07:45:35;101564.09;;;2.35;100.00
36726;BME280;44936;52.086;5.150;2023-12-04T07:48:04;101560.09;;;2.41;100.00
36726;BME280;44936;52.086;5.150;2023-12-04T07:50:30;101554.31;;;2.29;100.00
36726;BME280;44936;52.086;5.150;2023-12-04T07:52:55;101553.53;;;2.30;100.00
36726;BME280;44936;52.086;5.150;2023-12-04T07:55:21;101501.91;;;2.15;100.00
36726;BME280;44936;52.086;5.150;2023-12-04T07:57:46;101523.00;;;2.23;100.00
36726;BME280;44936;52.086;5.150;2023-12-04T08:00:12;101532.28;;;2.37;100.00
36726;BME280;44936;52.086;5.150;2023-12-04T08:02:39;101556.81;;;2.45;100.00
36726;BME280;44936;52.086;5.150;2023-12-04T08:05:04;101523.88;;;2.23;100.00
36726;BME280;44936;52.086;5.150;2023-12-04T08:07:29;101508.81;;;2.15;100.00
36726;BME280;44936;52.086;5.150;2023-12-04T08:09:55;101529.50;;;2.15;100.00
36726;BME280;44936;52.086;5.150;2023-12-04T08:12:20;101512.22;;;2.14;100.00
36726;BME280;44936;52.086;5.150;2023-12-04T08:14:46;101537.63;;;2.40;100.00
36726;BME280;44936;52.086;5.150;2023-12-04T08:17:12;101530.81;;;2.42;100.00
36726;BME280;44936;52.086;5.150;2023-12-04T08:19:37;101511.13;;;2.28;100.00
36726;BME280;44936;52.086;5.150;2023-12-04T08:22:04;101508.41;;;2.25;100.00
36726;BME280;44936;52.086;5.150;2023-12-04T08:24:29;101510.25;;;2.27;100.00
36726;BME280;44936;52.086;5.150;2023-12-04T08:26:56;101537.88;;;2.46;100.00
36726;BME280;44936;52.086;5.150;2023-12-04T08:29:22;101510.19;;;2.26;100.00
36726;BME280;44936;52.086;5.150;2023-12-04T08:31:47;101532.56;;;2.43;100.00
36726;BME280;44936;52.086;5.150;2023-12-04T08:34:12;101522.00;;;2.57;100.00
36726;BME280;44936;52.086;5.150;2023-12-04T08:36:38;101472.50;;;2.13;100.00
36726;BME280;44936;52.086;5.150;2023-12-04T08:39:03;101500.22;;;2.16;100.00
36726;BME280;44936;52.086;5.150;2023-12-04T08:41:29;101502.19;;;2.39;100.00
36726;BME280;44936;52.086;5.150;2023-12-04T08:43:54;101510.63;;;2.35;100.00
36726;BME280;44936;52.086;5.150;2023-12-04T08:46:20;101447.28;;;2.09;100.00
36726;BME280;44936;52.086;5.150;2023-12-04T08:48:46;101470.59;;;2.28;100.00
36726;BME280;44936;52.086;5.150;2023-12-04T08:51:17;101500.84;;;2.30;100.00
36726;BME280;44936;52.086;5.150;2023-12-04T08:57:16;101468.13;;;2.30;100.00
36726;BME280;44936;52.086;5.150;2023-12-04T08:59:42;101451.38;;;2.41;100.00
36726;BME280;44936;52.086;5.150;2023-12-04T09:02:07;101422.13;;;2.24;100.00
36726;BME280;44936;52.086;5.150;2023-12-04T09:04:32;101442.66;;;2.39;100.00
36726;BME280;44936;52.086;5.150;2023-12-04T09:06:58;101452.31;;;2.43;100.00
36726;BME280;44936;52.086;5.150;2023-12-04T09:09:24;101465.09;;;2.58;100.00
36726;BME280;44936;52.086;5.150;2023-12-04T09:11:49;101473.91;;;2.63;100.00
36726;BME280;44936;52.086;5.150;2023-12-04T09:14:14;101462.97;;;2.69;100.00
36726;BME280;44936;52.086;5.150;2023-12-04T09:16:41;101462.25;;;2.73;100.00
36726;BME280;44936;52.086;5.150;2023-12-04T09:19:06;101453.91;;;2.59;100.00
36726;BME280;44936;52.086;5.150;2023-12-04T09:21:32;101450.00;;;2.49;100.00
36726;BME280;44936;52.086;5.150;2023-12-04T09:23:58;101455.53;;;2.57;100.00
36726;BME280;44936;52.086;5.150;2023-12-04T09:26:23;101456.06;;;2.69;100.00
36726;BME280;44936;52.086;5.150;2023-12-04T09:28:49;101458.66;;;2.69;100.00
36726;BME280;44936;52.086;5.150;2023-12-04T09:31:14;101456.97;;;2.70;100.00
36726;BME280;44936;52.086;5.150;2023-12-04T09:33:40;101454.59;;;2.74;100.00
36726;BME280;44936;52.086;5.150;2023-12-04T09:36:05;101453.00;;;2.78;100.00
36726;BME280;44936;52.086;5.150;2023-12-04T09:38:31;101426.81;;;2.72;100.00
36726;BME280;44936;52.086;5.150;2023-12-04T09:40:59;101407.88;;;2.73;100.00
36726;BME280;44936;52.086;5.150;2023-12-04T09:43:30;101408.03;;;2.76;100.00
36726;BME280;44936;52.086;5.150;2023-12-04T09:45:56;101432.25;;;2.57;100.00
36726;BME280;44936;52.086;5.150;2023-12-04T09:48:26;101461.66;;;2.98;100.00
36726;BME280;44936;52.086;5.150;2023-12-04T09:50:52;101457.41;;;3.00;100.00
36726;BME280;44936;52.086;5.150;2023-12-04T09:53:17;101455.56;;;2.97;100.00
36726;BME280;44936;52.086;5.150;2023-12-04T09:55:43;101427.59;;;2.69;100.00
36726;BME280;44936;52.086;5.150;2023-12-04T09:58:11;101451.81;;;2.91;100.00
36726;BME280;44936;52.086;5.150;2023-12-04T10:00:41;101404.88;;;2.64;100.00
36726;BME280;44936;52.086;5.150;2023-12-04T10:03:08;101438.63;;;2.84;100.00
36726;BME280;44936;52.086;5.150;2023-12-04T10:05:33;101433.97;;;2.97;100.00
36726;BME280;44936;52.086;5.150;2023-12-04T10:07:58;101409.22;;;3.03;100.00
36726;BME280;44936;52.086;5.150;2023-12-04T10:10:24;101417.94;;;3.05;100.00
36726;BME280;44936;52.086;5.150;2023-12-04T10:12:49;101425.63;;;3.04;100.00
36726;BME280;44936;52.086;5.150;2023-12-04T10:15:15;101414.22;;;3.20;100.00
36726;BME280;44936;52.086;5.150;2023-12-04T10:17:41;101411.81;;;3.03;100.00
36726;BME280;44936;52.086;5.150;2023-12-04T10:20:12;101416.91;;;3.02;100.00
36726;BME280;44936;52.086;5.150;2023-12-04T10:22:53;101403.97;;;3.23;100.00
36726;BME280;44936;52.086;5.150;2023-12-04T10:25:19;101387.97;;;3.12;100.00
36726;BME280;44936;52.086;5.150;2023-12-04T10:27:46;101395.88;;;3.15;100.00
36726;BME280;44936;52.086;5.150;2023-12-04T10:32:54;101378.44;;;3.11;100.00
36726;BME280;44936;52.086;5.150;2023-12-04T10:35:20;101366.22;;;3.29;100.00
36726;BME280;44936;52.086;5.150;2023-12-04T10:37:45;101362.41;;;3.42;100.00
36726;BME280;44936;52.086;5.150;2023-12-04T10:40:10;101364.94;;;3.40;100.00
36726;BME280;44936;52.086;5.150;2023-12-04T10:42:36;101335.84;;;3.27;100.00
36726;BME280;44936;52.086;5.150;2023-12-04T10:45:02;101328.47;;;3.36;100.00
36726;BME280;44936;52.086;5.150;2023-12-04T10:47:30;101331.81;;;3.33;100.00
36726;BME280;44936;52.086;5.150;2023-12-04T10:49:56;101337.25;;;3.39;100.00
36726;BME280;44936;52.086;5.150;2023-12-04T10:52:22;101337.97;;;3.58;100.00
36726;BME280;44936;52.086;5.150;2023-12-04T10:54:48;101323.59;;;3.66;100.00
36726;BME280;44936;52.086;5.150;2023-12-04T10:57:23;101302.28;;;3.52;100.00
36726;BME280;44936;52.086;5.150;2023-12-04T10:59:51;101316.91;;;3.50;100.00
36726;BME280;44936;52.086;5.150;2023-12-04T11:02:21;101296.75;;;3.43;100.00
36726;BME280;44936;52.086;5.150;2023-12-04T11:05:12;101316.34;;;3.57;100.00
36726;BME280;44936;52.086;5.150;2023-12-04T11:07:41;101308.66;;;3.38;100.00
36726;BME280;44936;52.086;5.150;2023-12-04T11:10:10;101305.84;;;3.54;100.00
36726;BME280;44936;52.086;5.150;2023-12-04T11:12:39;101297.59;;;3.64;100.00
36726;BME280;44936;52.086;5.150;2023-12-04T11:15:06;101296.91;;;3.46;100.00
36726;BME280;44936;52.086;5.150;2023-12-04T11:17:34;101291.69;;;3.68;100.00
36726;BME280;44936;52.086;5.150;2023-12-04T11:20:05;101261.31;;;3.44;100.00
36726;BME280;44936;52.086;5.150;2023-12-04T11:22:34;101280.31;;;3.42;100.00
36726;BME280;44936;52.086;5.150;2023-12-04T11:25:06;101278.06;;;3.52;100.00
36726;BME280;44936;52.086;5.150;2023-12-04T11:27:33;101278.63;;;3.65;100.00
36726;BME280;44936;52.086;5.150;2023-12-04T11:29:59;101270.25;;;3.50;100.00
36726;BME280;44936;52.086;5.150;2023-12-04T11:32:28;101260.00;;;3.31;100.00
36726;BME280;44936;52.086;5.150;2023-12-04T11:34:59;101254.19;;;3.60;100.00
36726;BME280;44936;52.086;5.150;2023-12-04T11:37:26;101254.56;;;3.47;100.00
36726;BME280;44936;52.086;5.150;2023-12-04T11:39:51;101223.44;;;3.25;100.00
36726;BME280;44936;52.086;5.150;2023-12-04T11:42:24;101269.41;;;3.51;100.00
36726;BME280;44936;52.086;5.150;2023-12-04T11:44:56;101242.41;;;3.24;100.00
36726;BME280;44936;52.086;5.150;2023-12-04T11:47:22;101222.28;;;3.39;100.00
36726;BME280;44936;52.086;5.150;2023-12-04T11:49:47;101228.59;;;3.69;100.00
36726;BME280;44936;52.086;5.150;2023-12-04T11:52:12;101234.13;;;3.79;100.00
36726;BME280;44936;52.086;5.150;2023-12-04T11:57:26;101219.34;;;3.76;100.00
36726;BME280;44936;52.086;5.150;2023-12-04T12:05:22;101202.75;;;3.71;100.00
36726;BME280;44936;52.086;5.150;2023-12-04T12:07:48;101222.91;;;3.80;100.00
36726;BME280;44936;52.086;5.150;2023-12-04T12:10:13;101245.41;;;4.03;100.00
36726;BME280;44936;52.086;5.150;2023-12-04T12:12:45;101225.75;;;3.86;100.00
36726;BME280;44936;52.086;5.150;2023-12-04T12:15:11;101225.16;;;3.70;100.00
36726;BME280;44936;52.086;5.150;2023-12-04T12:17:40;101240.94;;;3.99;100.00
36726;BME280;44936;52.086;5.150;2023-12-04T12:20:10;101221.38;;;3.85;100.00
36726;BME280;44936;52.086;5.150;2023-12-04T12:22:37;101227.28;;;4.05;100.00
36726;BME280;44936;52.086;5.150;2023-12-04T12:25:07;101224.03;;;3.62;100.00
36726;BME280;44936;52.086;5.150;2023-12-04T12:27:33;101215.97;;;3.79;100.00
36726;BME280;44936;52.086;5.150;2023-12-04T12:29:58;101217.72;;;3.80;100.00
36726;BME280;44936;52.086;5.150;2023-12-04T12:32:25;101216.84;;;3.79;100.00
36726;BME280;44936;52.086;5.150;2023-12-04T12:34:51;101202.22;;;3.57;100.00
36726;BME280;44936;52.086;5.150;2023-12-04T12:37:16;101204.75;;;3.80;100.00
36726;BME280;44936;52.086;5.150;2023-12-04T12:39:42;101213.16;;;3.73;100.00
36726;BME280;44936;52.086;5.150;2023-12-04T12:42:07;101202.25;;;3.81;100.00
36726;BME280;44936;52.086;5.150;2023-12-04T12:44:39;101198.22;;;3.89;100.00
36726;BME280;44936;52.086;5.150;2023-12-04T12:47:08;101197.69;;;3.76;100.00
36726;BME280;44936;52.086;5.150;2023-12-04T12:49:34;101189.09;;;3.77;100.00
36726;BME280;44936;52.086;5.150;2023-12-04T12:52:01;101177.03;;;3.79;100.00
36726;BME280;44936;52.086;5.150;2023-12-04T12:54:26;101170.06;;;4.02;100.00
36726;BME280;44936;52.086;5.150;2023-12-04T12:56:52;101107.63;;;3.72;100.00
36726;BME280;44936;52.086;5.150;2023-12-04T12:59:17;101136.63;;;3.85;100.00